createdAt,value
2024-01-24T00:00:12.436Z,1.65
2024-01-24T00:04:14.426Z,2.83
2024-01-24T00:08:16.253Z,4.13
2024-01-24T00:12:18.404Z,0.73
2024-01-24T00:16:20.519Z,0.80
2024-01-24T00:20:24.165Z,1.50
2024-01-24T00:24:26.292Z,1.30
2024-01-24T00:28:28.819Z,1.57
2024-01-24T00:32:30.843Z,0.90
2024-01-24T00:36:32.732Z,3.42
2024-01-24T00:40:34.554Z,1.02
2024-01-24T00:44:40.106Z,3.08
2024-01-24T00:48:42.036Z,2.00
2024-01-24T00:52:43.847Z,7.00
2024-01-24T00:56:45.833Z,3.75
2024-01-24T01:00:47.963Z,4.13
2024-01-24T01:04:50.941Z,2.13
2024-01-24T01:12:55.681Z,6.05
2024-01-24T01:16:57.517Z,5.57
2024-01-24T01:20:59.435Z,3.38
2024-01-24T01:25:01.457Z,1.27
2024-01-24T01:29:03.350Z,4.30
2024-01-24T01:33:05.845Z,3.00
2024-01-24T01:37:08.382Z,3.67
2024-01-24T01:41:10.256Z,2.45
2024-01-24T01:45:13.329Z,3.83
2024-01-24T01:49:16.045Z,2.90
2024-01-24T01:53:17.943Z,4.68
2024-01-24T01:57:22.053Z,7.78
2024-01-24T02:01:24.756Z,2.75
2024-01-24T02:05:26.798Z,2.17
2024-01-24T02:09:29.124Z,5.67
2024-01-24T02:13:33.491Z,2.60
2024-01-24T02:17:36.575Z,3.33
2024-01-24T02:21:38.613Z,4.65
2024-01-24T02:25:40.533Z,2.13
2024-01-24T02:29:42.456Z,2.88
2024-01-24T02:33:44.684Z,3.92
2024-01-24T02:37:46.575Z,4.32
2024-01-24T02:41:48.790Z,6.85
2024-01-24T02:45:50.735Z,2.78
2024-01-24T02:49:52.733Z,3.47
2024-01-24T02:53:54.749Z,1.75
2024-01-24T02:57:56.877Z,5.18
2024-01-24T03:01:58.786Z,1.63
2024-01-24T03:06:00.670Z,0.70
2024-01-24T03:10:03.443Z,2.13
2024-01-24T03:14:05.541Z,0.95
2024-01-24T03:18:08.058Z,5.10
2024-01-24T03:22:09.968Z,1.50
2024-01-24T03:26:14.464Z,0.60
2024-01-24T03:30:16.648Z,0.80
2024-01-24T03:34:18.746Z,0.63
2024-01-24T03:38:21.430Z,0.57
2024-01-24T03:42:23.644Z,0.50
2024-01-24T03:46:25.452Z,0.63
2024-01-24T03:50:27.340Z,0.50
2024-01-24T03:54:29.152Z,0.50
2024-01-24T03:58:31.295Z,0.50
2024-01-24T04:02:33.128Z,0.60
2024-01-24T04:06:36.888Z,0.40
2024-01-24T04:10:38.884Z,0.47
2024-01-24T04:14:40.655Z,0.40
2024-01-24T04:18:42.516Z,0.85
2024-01-24T04:22:44.358Z,0.38
2024-01-24T04:26:46.249Z,0.40
2024-01-24T04:30:48.517Z,0.98
2024-01-24T04:34:50.470Z,0.57
2024-01-24T04:38:52.568Z,0.40
2024-01-24T04:42:56.561Z,0.40
2024-01-24T04:46:58.714Z,1.05
2024-01-24T04:51:01.241Z,0.40
2024-01-24T04:55:03.235Z,0.40
2024-01-24T04:59:06.281Z,0.50
2024-01-24T05:03:08.492Z,1.77
2024-01-24T05:07:10.591Z,0.33
2024-01-24T05:11:12.777Z,0.50
2024-01-24T05:15:15.371Z,0.40
2024-01-24T05:19:17.347Z,0.50
2024-01-24T05:23:19.653Z,0.40
2024-01-24T05:27:21.692Z,0.40
2024-01-24T05:31:24.111Z,2.67
2024-01-24T05:35:25.860Z,0.50
2024-01-24T05:39:27.990Z,0.88
2024-01-24T05:43:30.810Z,0.53
2024-01-24T05:47:33.716Z,1.75
2024-01-24T05:55:38.246Z,2.55
2024-01-24T05:59:41.378Z,7.28
2024-01-24T06:03:43.451Z,4.60
2024-01-24T06:07:45.770Z,4.20
2024-01-24T06:11:49.928Z,8.32
2024-01-24T06:15:54.926Z,5.05
2024-01-24T06:19:56.924Z,6.72
2024-01-24T06:23:58.875Z,12.05
2024-01-24T06:28:01.098Z,11.67
2024-01-24T06:32:02.982Z,11.07
2024-01-24T06:36:05.107Z,11.80
2024-01-24T06:40:07.622Z,18.97
2024-01-24T06:44:09.712Z,11.73
2024-01-24T06:48:11.723Z,14.87
2024-01-24T06:52:14.033Z,14.70
2024-01-24T06:56:16.079Z,14.18
2024-01-24T07:00:19.861Z,21.40
2024-01-24T07:04:21.989Z,10.60
2024-01-24T07:08:24.615Z,13.15
2024-01-24T07:12:26.766Z,16.80
2024-01-24T07:16:29.419Z,14.37
2024-01-24T07:20:31.469Z,9.77
2024-01-24T07:24:33.482Z,10.45
2024-01-24T07:28:36.496Z,11.67
2024-01-24T07:36:43.732Z,24.27
2024-01-24T07:40:45.646Z,21.67
2024-01-24T07:44:47.723Z,22.02
2024-01-24T07:48:50.194Z,22.80
2024-01-24T07:52:52.568Z,22.92
2024-01-24T07:56:54.622Z,20.77
2024-01-24T08:00:56.565Z,14.67
2024-01-24T08:04:59.314Z,27.50
2024-01-24T08:09:01.459Z,26.42
2024-01-24T08:13:03.516Z,33.97
2024-01-24T08:17:07.414Z,29.93
2024-01-24T08:21:09.282Z,23.33
2024-01-24T08:25:11.420Z,19.35
2024-01-24T08:29:21.905Z,26.87
2024-01-24T08:33:27.948Z,27.23
2024-01-24T08:37:30.507Z,21.25
2024-01-24T08:41:32.372Z,24.95
2024-01-24T08:45:34.610Z,33.47
2024-01-24T08:49:36.801Z,24.70
2024-01-24T08:53:39.319Z,25.60
2024-01-24T08:57:42.965Z,31.45
2024-01-24T09:01:47.229Z,34.08
2024-01-24T09:05:52.668Z,32.92
2024-01-24T09:09:54.916Z,36.45
2024-01-24T09:13:57.629Z,33.67
2024-01-24T09:17:59.460Z,25.65
2024-01-24T09:22:02.608Z,30.93
2024-01-24T09:26:06.151Z,43.33
2024-01-24T09:30:08.725Z,43.80
2024-01-24T09:34:15.926Z,41.97
2024-01-24T09:38:18.199Z,27.98
2024-01-24T09:42:28.865Z,27.02
2024-01-24T09:46:31.791Z,42.75
2024-01-24T09:50:33.567Z,34.88
2024-01-24T09:54:36.439Z,41.47
2024-01-24T09:58:38.576Z,41.65
2024-01-24T10:02:44.537Z,38.53
2024-01-24T10:06:47.530Z,43.28
2024-01-24T10:10:49.621Z,28.92
2024-01-24T10:14:52.112Z,35.13
2024-01-24T10:18:58.143Z,24.85
2024-01-24T10:23:00.529Z,39.63
2024-01-24T10:27:03.199Z,24.00
2024-01-24T10:31:06.809Z,27.98
2024-01-24T10:35:10.182Z,24.85
2024-01-24T10:39:15.436Z,29.30
2024-01-24T10:43:21.333Z,33.83
2024-01-24T10:47:24.224Z,39.08
2024-01-24T10:55:32.496Z,44.80
2024-01-24T10:59:39.995Z,38.58
2024-01-24T11:03:42.959Z,38.10
2024-01-24T11:07:55.855Z,36.10
2024-01-24T11:11:59.732Z,40.88
2024-01-24T11:16:02.393Z,36.92
2024-01-24T11:20:08.381Z,34.20
2024-01-24T11:24:10.587Z,34.78
2024-01-24T11:28:12.494Z,36.80
2024-01-24T11:32:46.582Z,30.23
2024-01-24T11:36:52.504Z,29.48
2024-01-24T11:41:04.149Z,38.28
2024-01-24T11:45:17.770Z,38.40
2024-01-24T11:49:22.841Z,45.30
2024-01-24T11:53:25.961Z,49.22
2024-01-24T11:57:29.937Z,39.45
2024-01-24T12:01:32.810Z,34.75
2024-01-24T12:05:37.150Z,28.52
2024-01-24T12:09:46.020Z,40.85
2024-01-24T12:14:00.593Z,41.55
2024-01-24T12:18:14.997Z,37.90
2024-01-24T12:22:24.965Z,29.70
2024-01-24T12:26:41.161Z,46.97
2024-01-24T12:31:05.024Z,39.83
2024-01-24T12:39:40.799Z,46.40
2024-01-24T12:43:43.067Z,39.40
2024-01-24T12:57:10.136Z,41.85
2024-01-24T13:01:14.500Z,27.27
2024-01-24T13:05:25.968Z,45.30
2024-01-24T13:09:37.245Z,36.85
2024-01-24T13:13:44.602Z,41.25
2024-01-24T13:18:01.593Z,33.47
2024-01-24T13:22:03.788Z,39.50
2024-01-24T13:26:05.809Z,35.23
2024-01-24T13:30:12.034Z,29.90
2024-01-24T13:34:14.431Z,39.28
2024-01-24T13:38:16.867Z,33.80
2024-01-24T13:42:18.820Z,29.92
2024-01-24T13:46:23.225Z,36.28
2024-01-24T13:50:26.474Z,32.38
2024-01-24T13:54:28.467Z,48.15
2024-01-24T13:58:30.926Z,39.33
2024-01-24T14:02:33.322Z,38.45
2024-01-24T14:06:35.279Z,36.20
2024-01-24T14:10:37.600Z,32.37
2024-01-24T14:14:39.723Z,41.93
2024-01-24T14:18:43.225Z,40.13
2024-01-24T14:22:45.403Z,31.40
2024-01-24T14:26:49.119Z,40.90
2024-01-24T14:30:51.845Z,32.38
2024-01-24T14:34:54.334Z,41.00
2024-01-24T14:38:56.240Z,32.23
2024-01-24T14:42:58.509Z,29.80
2024-01-24T14:47:00.400Z,35.22
2024-01-24T14:51:02.177Z,31.75
2024-01-24T14:55:04.657Z,35.85
2024-01-24T14:59:06.581Z,23.85
2024-01-24T15:03:08.816Z,41.03
2024-01-24T15:07:10.790Z,44.80
2024-01-24T15:11:14.955Z,41.80
2024-01-24T15:15:16.984Z,36.33
2024-01-24T15:19:19.232Z,34.17
2024-01-24T15:23:21.389Z,46.03
2024-01-24T15:27:25.070Z,44.13
2024-01-24T15:31:27.277Z,40.83
2024-01-24T15:35:29.769Z,34.97
2024-01-24T15:39:32.424Z,30.50
2024-01-24T15:43:38.918Z,44.70
2024-01-24T15:47:42.228Z,24.52
2024-01-24T15:51:44.376Z,39.60
2024-01-24T15:55:46.384Z,33.47
2024-01-24T15:59:48.328Z,29.92
2024-01-24T16:03:50.568Z,34.38
2024-01-24T16:07:54.835Z,38.67
2024-01-24T16:11:57.201Z,49.85
2024-01-24T16:16:03.262Z,43.83
2024-01-24T16:20:09.497Z,40.45
2024-01-24T16:24:11.453Z,30.40
2024-01-24T16:28:16.121Z,45.10
2024-01-24T16:32:18.476Z,41.58
2024-01-24T16:36:20.288Z,43.93
2024-01-24T16:40:24.653Z,34.67
2024-01-24T16:44:26.647Z,48.42
2024-01-24T16:48:28.665Z,43.40
2024-01-24T16:52:30.803Z,45.33
2024-01-24T16:56:32.570Z,49.25
2024-01-24T17:00:34.436Z,40.35
2024-01-24T17:04:38.395Z,40.10
2024-01-24T17:08:40.427Z,40.30
2024-01-24T17:12:42.377Z,42.08
2024-01-24T17:16:44.489Z,55.63
2024-01-24T17:20:47.315Z,39.60
2024-01-24T17:24:49.329Z,53.17
2024-01-24T17:28:53.815Z,39.75
2024-01-24T17:32:59.405Z,45.00
2024-01-24T17:37:01.616Z,41.03
2024-01-24T17:41:03.710Z,51.23
2024-01-24T17:45:06.553Z,61.20
2024-01-24T17:49:08.547Z,59.03
2024-01-24T17:53:13.354Z,58.63
2024-01-24T17:57:15.671Z,42.22
2024-01-24T18:01:19.446Z,36.58
2024-01-24T18:05:21.761Z,63.00
2024-01-24T18:09:24.396Z,56.00
2024-01-24T18:13:30.242Z,43.67
2024-01-24T18:17:32.167Z,42.15
2024-01-24T18:21:34.116Z,49.58
2024-01-24T18:25:36.152Z,45.83
2024-01-24T18:29:40.387Z,32.22
2024-01-24T18:33:42.749Z,35.03
2024-01-24T18:37:44.505Z,44.33
2024-01-24T18:41:46.261Z,35.10
2024-01-24T18:45:48.183Z,42.38
2024-01-24T18:49:57.804Z,55.53
2024-01-24T18:53:59.871Z,47.40
2024-01-24T18:58:03.475Z,46.72
2024-01-24T19:02:06.036Z,50.28
2024-01-24T19:06:08.997Z,50.13
2024-01-24T19:10:10.920Z,47.25
2024-01-24T19:14:13.193Z,57.92
2024-01-24T19:18:20.249Z,55.13
2024-01-24T19:22:24.842Z,47.50
2024-01-24T19:26:32.664Z,34.73
2024-01-24T19:30:34.530Z,36.50
2024-01-24T19:34:37.294Z,44.85
2024-01-24T19:38:39.388Z,47.80
2024-01-24T19:42:41.303Z,51.95
2024-01-24T19:46:43.787Z,42.65
2024-01-24T19:50:45.692Z,35.25
2024-01-24T19:54:47.903Z,53.55
2024-01-24T19:58:50.167Z,48.93
2024-01-24T20:02:52.031Z,43.03
2024-01-24T20:06:54.237Z,44.83
2024-01-24T20:10:56.439Z,48.83
2024-01-24T20:14:58.214Z,34.97
2024-01-24T20:19:00.347Z,40.67
2024-01-24T20:23:03.743Z,51.47
2024-01-24T20:27:05.725Z,43.33
2024-01-24T20:31:07.823Z,44.67
2024-01-24T20:35:09.955Z,47.83
2024-01-24T20:39:12.810Z,36.30
2024-01-24T20:43:14.727Z,47.60
2024-01-24T20:47:17.067Z,38.97
2024-01-24T20:51:19.060Z,50.30
2024-01-24T20:55:21.073Z,34.28
2024-01-24T20:59:24.439Z,31.05
2024-01-24T21:03:28.677Z,51.45
2024-01-24T21:07:30.680Z,51.67
2024-01-24T21:11:33.908Z,45.97
2024-01-24T21:15:35.975Z,39.25
2024-01-24T21:19:37.951Z,42.33
2024-01-24T21:23:40.199Z,45.27
2024-01-24T21:27:42.402Z,46.17
2024-01-24T21:31:46.816Z,31.27
2024-01-24T21:35:48.783Z,41.58
2024-01-24T21:51:16.186Z,48.95
2024-01-24T21:55:18.434Z,46.70
2024-01-24T21:59:21.679Z,44.20
2024-01-24T22:03:23.570Z,44.00
2024-01-24T22:07:25.490Z,32.25
2024-01-24T22:11:29.066Z,39.65
2024-01-24T22:15:34.513Z,42.80
2024-01-24T22:19:36.377Z,38.60
2024-01-24T22:23:38.647Z,43.70
2024-01-24T22:27:40.575Z,49.20
2024-01-24T22:31:42.620Z,52.30
2024-01-24T22:35:44.522Z,52.63
2024-01-24T22:39:46.668Z,54.72
2024-01-24T22:48:00.186Z,39.75
2024-01-24T22:52:02.734Z,50.35
2024-01-24T22:56:04.800Z,46.40
2024-01-24T23:00:12.622Z,49.55
2024-01-24T23:04:14.550Z,48.72
2024-01-24T23:08:18.186Z,51.00
2024-01-24T23:12:20.163Z,50.55
2024-01-24T23:16:22.353Z,36.45
2024-01-24T23:20:24.404Z,50.17
2024-01-24T23:24:26.525Z,37.97
2024-01-24T23:28:28.603Z,41.70
2024-01-24T23:32:30.530Z,57.70
2024-01-24T23:36:32.423Z,52.15
2024-01-24T23:40:34.208Z,47.90
2024-01-24T23:44:45.930Z,37.47
2024-01-24T23:48:48.098Z,51.60
2024-01-24T23:52:50.384Z,43.83
2024-01-24T23:56:52.773Z,35.67
